Akron Fulton International Airport Akron US
ICAO: KAKR
IATA: AKC
Category: Medium
Scheduled Services: No

Elevation: 1067 ft
TransAlt. 18000 ft.

Airport Communications:
APP/DEP:118.6
ASOS:126.825
CTAF/UNICOM:123.075
CLEVELAND RDO:114.4

KAKR Zoom In..

If you have problems with the map follow the link
https://www.worldairports.se/pages/airport.php?
ICAO=KAKR

Runways:

(A) RW 01 length 2337 ft width 100 ft
LOC 110.90 / hdg 8

(B) RW 07 length 6336 ft width 150 ft
LOC 110.90 / hdg 69

(C) RW 19 length 2337 ft width 100 ft
LOC 110.90 / hdg 188

(D) RW 25 length 6336 ft width 150 ft
LOC 110.90 / hdg 249

Location; KAKR
Day. 16 / Time. 03.51 Zulu
* Altimeter: 29.89
* Temperature: 20° c. 68°f.
* Wind from: 200° Speed 06 kn.
Dewpoint: 18° c.
Visibility: 4 Statute Miles.
Clouds: Scattered 1100 ft.
Clouds: Broken 3800 ft.
Clouds: Overcast 5000 ft.
Conditions: Rain.Conditions: Mist.

KAKR 160351Z AUTO 20006KT 4SM RA BR SCT011 BKN038 OVC050 20/18 A2989 RMK AO2 P0007


Wind From 200°
Speed 06 kn.

 
 
jpsmedia.com for Web Design worldairports.se 2019   terms of use